Time;durP1;ratioP1;P1;durP2;ratioP2;P2;SDS_P1;SDS_P2;PMS_P1;PMS_P2;Temp;Humidity;BMP_temperature;BMP_pressure;BME280_temperature;BME280_humidity;BME280_pressure;Samples;Min_cycle;Max_cycle;Signal;HPM_P1;HPM_P2
2023/05/21 00:01:24;;;;;;;44.63;7.57;;;21.90;52.90;;;;;;6216894;23;20172;-90
2023/05/21 00:03:51;;;;;;;42.77;7.20;;;21.90;52.90;;;;;;6226264;23;20691;-88
2023/05/21 00:06:19;;;;;;;34.57;6.67;;;21.80;52.80;;;;;;6222141;23;20501;-90
2023/05/21 00:08:48;;;;;;;55.07;8.50;;;21.80;52.80;;;;;;6210757;23;20249;-90
2023/05/21 00:11:15;;;;;;;41.27;7.63;;;21.80;52.80;;;;;;6209892;23;20193;-88
2023/05/21 00:13:41;;;;;;;35.50;7.03;;;21.80;52.80;;;;;;6210184;23;20553;-89
2023/05/21 00:16:09;;;;;;;38.33;7.00;;;21.80;52.80;;;;;;6211961;23;20424;-89
2023/05/21 00:18:38;;;;;;;57.30;9.00;;;21.80;52.80;;;;;;6209448;23;20243;-89
2023/05/21 00:21:06;;;;;;;37.00;7.23;;;21.80;52.80;;;;;;6212086;23;20169;-89
2023/05/21 00:23:36;;;;;;;36.50;6.97;;;21.70;52.80;;;;;;6211862;23;20165;-92
2023/05/21 00:26:04;;;;;;;44.33;7.70;;;21.70;52.70;;;;;;6210941;23;20172;-92
2023/05/21 00:28:32;;;;;;;39.07;6.87;;;21.70;52.80;;;;;;6209947;23;20692;-89
2023/05/21 00:30:59;;;;;;;30.67;6.80;;;21.70;52.80;;;;;;6211525;23;20199;-93
2023/05/21 00:33:27;;;;;;;34.50;6.67;;;21.70;52.80;;;;;;6210074;23;20203;-89
2023/05/21 00:35:55;;;;;;;36.73;6.60;;;21.70;52.80;;;;;;6210301;23;20241;-92
2023/05/21 00:38:23;;;;;;;36.80;7.13;;;21.70;53.40;;;;;;6208184;23;20179;-90
2023/05/21 00:40:50;;;;;;;49.67;8.00;;;21.60;52.70;;;;;;6209378;23;20228;-90
2023/05/21 00:43:19;;;;;;;32.30;6.87;;;21.60;52.80;;;;;;6209162;23;20203;-90
2023/05/21 00:45:48;;;;;;;33.77;6.43;;;21.60;53.30;;;;;;6210549;23;20169;-90
2023/05/21 00:48:16;;;;;;;35.13;6.53;;;21.60;52.80;;;;;;6210181;23;20184;-93
2023/05/21 00:50:43;;;;;;;70.87;9.57;;;21.60;52.80;;;;;;6209380;23;20169;-90
2023/05/21 00:53:11;;;;;;;48.67;7.63;;;21.60;52.80;;;;;;6210782;23;20221;-96
2023/05/21 00:55:38;;;;;;;33.40;6.37;;;21.60;52.80;;;;;;6210117;23;20266;-90
2023/05/21 00:58:05;;;;;;;35.47;6.60;;;21.50;52.70;;;;;;6208943;23;20203;-89
2023/05/21 01:00:36;;;;;;;30.70;6.60;;;21.50;52.70;;;;;;6210063;23;20188;-89
2023/05/21 01:03:04;;;;;;;32.67;6.63;;;21.50;52.70;;;;;;6209279;23;20178;-89
2023/05/21 01:05:31;;;;;;;31.10;6.30;;;21.50;52.80;;;;;;6210135;23;20175;-89
2023/05/21 01:07:59;;;;;;;46.27;7.77;;;21.50;52.80;;;;;;6210022;23;20195;-90
2023/05/21 01:10:27;;;;;;;33.43;6.37;;;21.50;52.80;;;;;;6210106;23;20186;-89
2023/05/21 01:12:56;;;;;;;27.77;6.13;;;21.50;52.80;;;;;;6208895;23;20170;-90
2023/05/21 01:15:24;;;;;;;42.40;6.97;;;21.40;52.70;;;;;;6207465;23;20231;-91
2023/05/21 01:17:52;;;;;;;52.27;8.03;;;21.40;52.70;;;;;;6209380;23;20554;-91
2023/05/21 01:20:20;;;;;;;31.13;6.40;;;21.40;52.70;;;;;;6208873;23;20176;-88
2023/05/21 01:22:52;;;;;;;37.17;7.23;;;21.40;52.80;;;;;;6207498;23;20522;-88
2023/05/21 01:25:19;;;;;;;35.33;6.90;;;21.40;52.70;;;;;;6209498;23;20171;-89
2023/05/21 01:27:49;;;;;;;32.77;6.40;;;21.40;52.80;;;;;;6209025;23;20204;-89
2023/05/21 01:30:18;;;;;;;40.00;7.47;;;21.40;52.80;;;;;;6209142;23;20168;-90
2023/05/21 01:32:52;;;;;;;35.37;6.77;;;21.40;52.80;;;;;;6209253;23;20170;-92
2023/05/21 01:35:22;;;;;;;33.70;7.07;;;21.40;52.70;;;;;;6209628;23;20211;-89
2023/05/21 01:37:55;;;;;;;80.87;10.50;;;21.30;52.70;;;;;;6208154;23;20278;-89
2023/05/21 01:40:29;;;;;;;32.20;6.63;;;21.30;52.70;;;;;;6208452;23;20198;-89
2023/05/21 01:42:58;;;;;;;71.07;10.03;;;21.30;52.70;;;;;;6208075;23;20195;-89
2023/05/21 01:45:27;;;;;;;52.63;8.30;;;21.30;52.70;;;;;;6209182;23;20192;-90
2023/05/21 01:47:55;;;;;;;51.17;8.47;;;21.30;52.70;;;;;;6208464;23;20259;-89
2023/05/21 01:50:23;;;;;;;62.83;9.23;;;21.30;52.70;;;;;;6208569;23;20508;-89
2023/05/21 01:52:54;;;;;;;34.83;6.93;;;21.30;52.80;;;;;;6209361;23;20201;-89
2023/05/21 01:55:23;;;;;;;34.73;6.43;;;21.20;52.60;;;;;;6209025;23;20589;-88
2023/05/21 01:57:51;;;;;;;30.20;6.60;;;21.20;52.70;;;;;;6208475;23;20278;-91
2023/05/21 02:00:19;;;;;;;36.47;7.00;;;21.20;52.70;;;;;;6209432;23;20596;-89
2023/05/21 02:02:46;;;;;;;32.17;6.83;;;21.20;52.70;;;;;;6210024;23;20197;-89
2023/05/21 02:05:13;;;;;;;41.57;7.03;;;21.20;52.70;;;;;;6207978;23;20691;-89
2023/05/21 02:07:40;;;;;;;35.17;6.97;;;21.20;52.70;;;;;;6208454;23;20172;-88
2023/05/21 02:10:09;;;;;;;41.93;7.50;;;21.20;52.70;;;;;;6209989;23;20199;-89
2023/05/21 02:12:37;;;;;;;39.60;7.20;;;21.10;52.60;;;;;;6208946;23;20510;-90
2023/05/21 02:15:05;;;;;;;42.50;7.70;;;21.10;52.60;;;;;;6209090;23;20581;-89
2023/05/21 02:17:34;;;;;;;56.93;8.57;;;21.10;52.70;;;;;;6207738;23;20182;-89
2023/05/21 02:20:09;;;;;;;37.37;7.27;;;21.10;52.70;;;;;;6209470;23;20601;-93
2023/05/21 02:22:37;;;;;;;34.03;6.83;;;21.00;52.60;;;;;;6210591;23;20255;-93
2023/05/21 02:25:06;;;;;;;42.87;7.57;;;21.10;52.70;;;;;;6212225;23;20607;-93
2023/05/21 02:27:35;;;;;;;30.57;6.57;;;21.00;52.60;;;;;;6211592;23;20186;-90
2023/05/21 02:30:03;;;;;;;40.70;7.43;;;21.00;52.60;;;;;;6211586;23;20562;-89
2023/05/21 02:32:31;;;;;;;58.07;8.90;;;21.00;52.60;;;;;;6210671;23;20177;-94
2023/05/21 02:34:58;;;;;;;56.43;9.07;;;21.00;52.60;;;;;;6210797;23;20188;-91
2023/05/21 02:37:27;;;;;;;33.73;6.77;;;21.00;52.60;;;;;;6213992;23;20271;-90
2023/05/21 02:39:54;;;;;;;33.77;6.77;;;21.00;52.60;;;;;;6214855;23;20167;-91
2023/05/21 02:42:25;;;;;;;49.60;8.43;;;21.00;52.70;;;;;;6215499;23;20484;-90
2023/05/21 02:44:53;;;;;;;45.17;7.73;;;21.00;52.60;;;;;;6220019;23;20204;-91
2023/05/21 02:47:22;;;;;;;33.53;7.13;;;20.90;52.60;;;;;;6219558;23;20722;-94
2023/05/21 02:49:51;;;;;;;54.77;8.73;;;20.90;52.60;;;;;;6210056;23;20234;-92
2023/05/21 02:52:18;;;;;;;37.87;7.30;;;20.90;52.60;;;;;;6210905;23;20679;-89
2023/05/21 02:54:46;;;;;;;37.70;7.70;;;20.90;52.60;;;;;;6209670;23;20176;-89
2023/05/21 02:57:13;;;;;;;54.07;8.47;;;20.90;52.60;;;;;;6209988;23;20250;-89
2023/05/21 02:59:40;;;;;;;40.77;8.03;;;20.90;53.30;;;;;;6210881;23;20179;-93
2023/05/21 03:02:10;;;;;;;57.37;9.13;;;20.80;52.60;;;;;;6210670;23;20201;-91
2023/05/21 03:04:37;;;;;;;37.70;7.27;;;20.90;52.60;;;;;;6210775;23;20202;-92
2023/05/21 03:07:05;;;;;;;34.40;7.00;;;20.90;52.70;;;;;;6211422;23;20243;-88
2023/05/21 03:09:32;;;;;;;31.10;6.37;;;20.80;52.60;;;;;;6211308;23;20193;-93
2023/05/21 03:11:59;;;;;;;41.03;7.77;;;20.80;52.60;;;;;;6209888;23;20269;-88
2023/05/21 03:14:27;;;;;;;32.73;6.93;;;20.80;52.60;;;;;;6210369;23;20196;-89
2023/05/21 03:16:54;;;;;;;51.60;8.33;;;20.80;52.60;;;;;;6210228;23;20188;-89
2023/05/21 03:19:23;;;;;;;39.60;7.80;;;20.80;52.60;;;;;;6209675;23;20620;-88
2023/05/21 03:21:51;;;;;;;33.00;6.90;;;20.80;52.60;;;;;;6209719;23;20168;-88
2023/05/21 03:24:18;;;;;;;41.70;7.63;;;20.80;52.70;;;;;;6183940;23;20168;-88
2023/05/21 03:26:46;;;;;;;56.03;8.83;;;20.70;53.20;;;;;;6209279;23;20259;-90
2023/05/21 03:29:14;;;;;;;41.40;7.47;;;20.70;52.60;;;;;;6211214;23;20168;-91
2023/05/21 03:31:40;;;;;;;36.00;7.47;;;20.70;52.60;;;;;;6210544;23;20627;-93
2023/05/21 03:34:08;;;;;;;41.23;7.43;;;20.70;52.60;;;;;;6213337;23;20658;-90
2023/05/21 03:36:36;;;;;;;32.70;6.90;;;20.70;52.60;;;;;;6221791;23;20208;-90
2023/05/21 03:39:04;;;;;;;38.60;7.93;;;20.70;52.60;;;;;;6220842;23;20164;-88
2023/05/21 03:41:31;;;;;;;40.93;7.87;;;20.70;52.60;;;;;;6219027;23;20169;-89
2023/05/21 03:43:58;;;;;;;33.03;6.93;;;20.70;52.60;;;;;;6212079;23;20220;-89
2023/05/21 03:46:25;;;;;;;31.03;6.37;;;20.70;52.60;;;;;;6211380;23;20255;-89
2023/05/21 03:48:54;;;;;;;30.87;6.67;;;20.60;52.60;;;;;;6210808;23;20489;-89
2023/05/21 03:51:24;;;;;;;31.77;6.73;;;20.60;52.60;;;;;;6210789;23;20168;-87
2023/05/21 03:53:52;;;;;;;29.57;6.80;;;20.60;52.60;;;;;;6210789;23;20251;-88
2023/05/21 03:56:20;;;;;;;38.93;7.10;;;20.60;52.60;;;;;;6210617;23;20291;-89
2023/05/21 03:58:47;;;;;;;33.57;6.77;;;20.60;52.60;;;;;;6210958;23;20195;-88
2023/05/21 04:01:14;;;;;;;41.53;7.77;;;20.60;52.60;;;;;;6209478;23;20244;-87
2023/05/21 04:03:41;;;;;;;35.67;7.33;;;20.60;52.60;;;;;;6209723;23;20211;-87
2023/05/21 04:06:08;;;;;;;38.33;7.73;;;20.60;52.60;;;;;;6210517;23;20234;-88
2023/05/21 04:08:36;;;;;;;33.53;6.93;;;20.50;52.50;;;;;;6209929;23;20205;-88
2023/05/21 04:11:05;;;;;;;39.40;7.13;;;20.50;52.60;;;;;;6208839;23;20550;-87
2023/05/21 04:13:32;;;;;;;39.13;7.43;;;20.50;52.60;;;;;;6210377;23;20226;-87
2023/05/21 04:15:59;;;;;;;36.63;7.43;;;20.50;52.60;;;;;;6210811;23;20193;-88
2023/05/21 04:18:26;;;;;;;34.33;7.70;;;20.50;52.60;;;;;;6209023;23;20171;-89
2023/05/21 04:20:53;;;;;;;32.13;6.90;;;20.50;52.60;;;;;;6209304;23;20647;-87
2023/05/21 04:23:22;;;;;;;36.60;7.07;;;20.50;52.60;;;;;;6210587;23;20862;-93
2023/05/21 04:25:49;;;;;;;33.10;7.37;;;20.50;52.60;;;;;;6210756;23;20161;-88
2023/05/21 04:28:19;;;;;;;56.87;9.13;;;20.50;52.60;;;;;;6209139;23;20192;-90
2023/05/21 04:30:46;;;;;;;29.77;7.00;;;20.40;52.50;;;;;;6209635;23;20165;-92
2023/05/21 04:33:16;;;;;;;40.10;7.53;;;20.40;52.60;;;;;;6210162;23;20168;-89
2023/05/21 04:35:43;;;;;;;40.30;7.53;;;20.50;52.60;;;;;;6210153;23;20200;-93
2023/05/21 04:38:18;;;;;;;39.23;7.60;;;20.40;52.60;;;;;;6210137;23;20183;-91
2023/05/21 04:40:45;;;;;;;42.13;7.87;;;20.40;52.60;;;;;;6210944;23;20159;-93
2023/05/21 04:43:12;;;;;;;46.83;8.40;;;20.40;52.60;;;;;;6210647;23;20196;-93
2023/05/21 04:45:40;;;;;;;55.80;8.70;;;20.40;52.60;;;;;;6208369;23;20703;-90
2023/05/21 04:48:07;;;;;;;55.13;8.47;;;20.40;52.60;;;;;;6209704;23;20552;-92
2023/05/21 04:50:35;;;;;;;40.67;7.27;;;20.40;52.60;;;;;;6209868;23;20196;-91
2023/05/21 04:53:03;;;;;;;34.83;6.73;;;20.40;52.60;;;;;;6208762;23;20561;-92
2023/05/21 04:55:30;;;;;;;52.57;8.63;;;20.40;52.60;;;;;;6208153;23;20164;-91
2023/05/21 04:57:57;;;;;;;33.17;7.07;;;20.40;52.60;;;;;;6209908;23;20203;-90
2023/05/21 05:00:24;;;;;;;36.57;6.90;;;20.40;52.60;;;;;;6208173;23;20684;-91
2023/05/21 05:02:53;;;;;;;48.97;8.27;;;20.40;52.70;;;;;;6208463;23;20179;-92
2023/05/21 05:05:20;;;;;;;43.83;7.90;;;20.40;52.60;;;;;;6208132;23;20699;-90
2023/05/21 05:07:47;;;;;;;48.20;8.17;;;20.30;52.60;;;;;;6208753;23;20176;-90
2023/05/21 05:10:14;;;;;;;32.10;6.70;;;20.30;52.60;;;;;;6209080;23;20197;-91
2023/05/21 05:12:41;;;;;;;49.43;8.47;;;20.30;52.60;;;;;;6208056;23;20705;-91
2023/05/21 05:15:09;;;;;;;37.57;7.77;;;20.30;52.60;;;;;;6208913;23;20534;-91
2023/05/21 05:17:36;;;;;;;67.73;9.97;;;20.30;52.60;;;;;;6207794;23;20204;-90
2023/05/21 05:20:05;;;;;;;34.90;7.43;;;20.30;52.70;;;;;;6209477;23;20200;-94
2023/05/21 05:22:32;;;;;;;54.10;9.23;;;20.30;52.70;;;;;;6208931;23;20554;-90
2023/05/21 05:24:59;;;;;;;38.43;7.57;;;20.30;52.70;;;;;;6207602;23;20852;-90
2023/05/21 05:27:26;;;;;;;38.77;7.57;;;20.30;52.70;;;;;;6205861;23;20541;-90
2023/05/21 05:29:53;;;;;;;31.37;6.73;;;20.30;52.80;;;;;;6207716;23;20209;-91
2023/05/21 05:32:20;;;;;;;35.23;7.50;;;20.30;52.80;;;;;;6209491;23;20715;-91
2023/05/21 05:34:47;;;;;;;36.27;7.40;;;20.30;52.80;;;;;;6208405;23;20169;-89
2023/05/21 05:37:15;;;;;;;40.00;7.80;;;20.30;52.90;;;;;;6208801;23;20234;-88
2023/05/21 05:39:42;;;;;;;38.70;7.67;;;20.30;52.90;;;;;;6208912;23;20175;-89
2023/05/21 05:42:09;;;;;;;44.17;8.10;;;20.30;52.90;;;;;;6208749;23;20605;-90
2023/05/21 05:44:36;;;;;;;40.03;8.73;;;20.30;52.90;;;;;;6209210;23;20235;-90
2023/05/21 05:47:07;;;;;;;27.37;8.47;;;20.30;52.90;;;;;;6207951;23;20207;-89
2023/05/21 05:49:35;;;;;;;35.00;8.07;;;20.20;52.90;;;;;;6208537;23;20683;-90
2023/05/21 05:52:02;;;;;;;32.53;7.93;;;20.20;52.90;;;;;;6209577;23;20248;-89
2023/05/21 05:54:30;;;;;;;49.10;9.63;;;20.30;53.00;;;;;;6208333;23;20195;-90
2023/05/21 05:56:57;;;;;;;40.43;8.50;;;20.30;53.00;;;;;;6208074;23;20236;-90
2023/05/21 05:59:24;;;;;;;27.67;7.87;;;20.30;53.00;;;;;;6208163;23;20197;-90
2023/05/21 06:01:51;;;;;;;28.57;7.43;;;20.30;53.10;;;;;;6209189;23;20172;-90
2023/05/21 06:04:18;;;;;;;31.37;8.07;;;20.20;53.00;;;;;;6208857;23;20531;-90
2023/05/21 06:06:46;;;;;;;41.63;8.67;;;20.30;53.10;;;;;;6209024;23;20207;-90
2023/05/21 06:09:13;;;;;;;30.90;7.33;;;20.20;53.00;;;;;;6209100;23;20168;-89
2023/05/21 06:11:41;;;;;;;44.53;8.40;;;20.30;53.10;;;;;;6209365;23;20196;-90
2023/05/21 06:14:08;;;;;;;27.43;6.97;;;20.20;53.00;;;;;;6209304;23;20191;-90
2023/05/21 06:16:36;;;;;;;33.67;7.53;;;20.30;53.20;;;;;;6208514;23;20735;-91
2023/05/21 06:19:02;;;;;;;30.17;7.47;;;20.30;53.20;;;;;;6208528;23;20259;-90
2023/05/21 06:21:30;;;;;;;28.53;6.83;;;20.30;53.20;;;;;;6208623;23;20192;-91
2023/05/21 06:23:57;;;;;;;33.37;7.73;;;20.30;53.20;;;;;;6209374;23;20170;-92
2023/05/21 06:26:33;;;;;;;63.60;9.90;;;20.30;53.20;;;;;;6208949;23;20165;-90
2023/05/21 06:29:03;;;;;;;30.13;7.47;;;20.30;53.60;;;;;;6208303;23;20197;-91
2023/05/21 06:31:31;;;;;;;28.47;7.07;;;20.30;53.40;;;;;;6209346;23;20232;-90
2023/05/21 06:33:59;;;;;;;30.47;7.63;;;20.30;53.30;;;;;;6208528;23;20165;-90
2023/05/21 06:36:28;;;;;;;57.40;9.83;;;20.30;53.30;;;;;;6208324;23;20532;-89
2023/05/21 06:38:56;;;;;;;32.00;7.63;;;20.30;53.30;;;;;;6208828;23;20168;-90
2023/05/21 06:41:23;;;;;;;38.77;8.70;;;20.30;53.30;;;;;;6207833;23;20659;-90
2023/05/21 06:43:50;;;;;;;35.00;7.27;;;20.30;53.30;;;;;;6207381;23;20197;-89
2023/05/21 06:46:18;;;;;;;25.37;7.13;;;20.30;53.30;;;;;;6208421;23;20182;-91
2023/05/21 06:48:45;;;;;;;33.43;7.30;;;20.30;53.30;;;;;;6209110;23;20226;-90
2023/05/21 06:51:13;;;;;;;63.70;10.07;;;20.30;53.30;;;;;;6207491;23;20921;-90
2023/05/21 06:53:40;;;;;;;30.97;7.13;;;20.40;53.40;;;;;;6208751;23;20200;-90
2023/05/21 06:56:07;;;;;;;31.70;7.57;;;20.40;53.40;;;;;;6208473;23;20230;-90
2023/05/21 06:58:34;;;;;;;32.10;6.77;;;20.40;53.40;;;;;;6209279;23;20755;-91
2023/05/21 07:01:01;;;;;;;29.20;6.57;;;20.40;53.40;;;;;;6208908;23;20736;-91
2023/05/21 07:03:30;;;;;;;20.83;6.03;;;20.40;53.40;;;;;;6212980;23;20164;-91
2023/05/21 07:05:57;;;;;;;38.33;7.93;;;20.40;53.40;;;;;;6230444;23;20182;-91
2023/05/21 07:08:24;;;;;;;33.03;7.43;;;20.40;53.40;;;;;;6229623;23;20187;-90
2023/05/21 07:10:51;;;;;;;39.30;7.40;;;20.40;53.40;;;;;;6217341;23;20170;-89
2023/05/21 07:13:18;;;;;;;38.47;8.13;;;20.50;53.50;;;;;;6210799;23;20239;-89
2023/05/21 07:15:45;;;;;;;47.93;8.40;;;20.40;53.50;;;;;;6209629;23;20984;-90
2023/05/21 07:18:12;;;;;;;35.43;8.50;;;20.40;53.40;;;;;;6211781;23;20282;-88
2023/05/21 07:20:41;;;;;;;42.80;9.50;;;20.50;53.70;;;;;;6210564;23;20648;-89
2023/05/21 07:23:08;;;;;;;28.70;8.00;;;20.50;54.40;;;;;;6211791;23;20224;-90
2023/05/21 07:25:35;;;;;;;25.20;7.80;;;20.50;54.80;;;;;;6211918;23;20212;-89
2023/05/21 07:28:02;;;;;;;29.80;8.33;;;20.50;55.00;;;;;;6212647;23;20161;-92
2023/05/21 07:30:29;;;;;;;36.27;9.07;;;20.50;55.00;;;;;;6211494;23;20168;-89
2023/05/21 07:32:56;;;;;;;42.90;9.93;;;20.60;55.30;;;;;;6211148;23;20179;-88
2023/05/21 07:35:23;;;;;;;37.93;8.90;;;20.50;55.60;;;;;;6211429;23;20179;-90
2023/05/21 07:37:51;;;;;;;33.80;9.10;;;20.60;55.80;;;;;;6211169;23;20639;-92
2023/05/21 07:40:19;;;;;;;32.77;8.60;;;20.60;56.10;;;;;;6210309;23;20211;-88
2023/05/21 07:42:48;;;;;;;33.17;9.47;;;20.60;55.80;;;;;;6210977;23;20224;-89
2023/05/21 07:45:15;;;;;;;25.43;8.13;;;20.60;55.70;;;;;;6211207;23;20676;-94
2023/05/21 07:47:42;;;;;;;36.07;8.40;;;20.60;55.90;;;;;;6211182;23;20191;-88
2023/05/21 07:50:11;;;;;;;27.87;7.87;;;20.60;56.10;;;;;;6211390;23;20701;-88
2023/05/21 07:52:38;;;;;;;34.40;8.70;;;20.70;56.20;;;;;;6211119;23;20627;-94
2023/05/21 07:55:08;;;;;;;29.17;8.77;;;20.70;56.20;;;;;;6211242;23;20203;-87
2023/05/21 07:57:37;;;;;;;33.50;8.20;;;20.70;56.20;;;;;;6211045;23;20274;-89
2023/05/21 08:00:07;;;;;;;38.10;8.90;;;20.70;56.30;;;;;;6211593;23;20723;-93
2023/05/21 08:02:34;;;;;;;31.17;7.67;;;20.80;56.40;;;;;;6211558;23;20169;-89
2023/05/21 08:05:01;;;;;;;36.93;9.13;;;20.80;56.40;;;;;;6210786;23;20180;-87
2023/05/21 08:07:28;;;;;;;27.37;8.20;;;20.90;56.70;;;;;;6211502;23;20243;-96
2023/05/21 08:09:56;;;;;;;33.87;8.93;;;20.90;56.80;;;;;;6211004;23;20189;-95
2023/05/21 08:12:24;;;;;;;33.37;8.40;;;20.90;56.90;;;;;;6210214;23;20180;-87
2023/05/21 08:14:53;;;;;;;30.70;8.87;;;21.00;57.10;;;;;;6211304;23;20177;-88
2023/05/21 08:17:20;;;;;;;29.90;8.10;;;21.00;57.10;;;;;;6210596;23;20766;-89
2023/05/21 08:19:47;;;;;;;27.70;7.67;;;21.00;56.90;;;;;;6210139;23;20210;-89
2023/05/21 08:22:14;;;;;;;28.47;7.67;;;21.00;56.60;;;;;;6210063;23;20204;-89
2023/05/21 08:24:41;;;;;;;30.97;7.87;;;21.10;56.50;;;;;;6210017;23;20199;-90
2023/05/21 08:27:09;;;;;;;29.67;8.53;;;21.10;56.50;;;;;;6210176;23;20972;-90
2023/05/21 08:29:37;;;;;;;28.63;7.40;;;21.10;56.30;;;;;;6210021;23;20558;-88
2023/05/21 08:32:04;;;;;;;32.27;7.33;;;21.20;56.30;;;;;;6210209;23;20166;-89
2023/05/21 08:34:31;;;;;;;26.77;7.20;;;21.20;56.80;;;;;;6210313;23;20249;-89
2023/05/21 08:36:58;;;;;;;28.27;7.20;;;21.30;56.10;;;;;;6210556;23;20203;-89
2023/05/21 08:39:25;;;;;;;29.73;6.70;;;21.30;56.10;;;;;;6209910;23;20234;-90
2023/05/21 08:42:02;;;;;;;27.83;7.27;;;21.30;56.00;;;;;;6210488;23;20524;-89
2023/05/21 08:44:33;;;;;;;26.70;7.07;;;21.40;56.10;;;;;;6209937;23;20220;-89
2023/05/21 08:47:07;;;;;;;26.30;6.30;;;21.40;56.00;;;;;;6209776;23;20188;-88
2023/05/21 08:49:35;;;;;;;32.80;7.50;;;21.40;56.50;;;;;;6209675;23;20168;-90
2023/05/21 08:52:02;;;;;;;33.33;7.33;;;21.40;55.80;;;;;;6209653;23;20179;-89
2023/05/21 08:54:29;;;;;;;22.80;6.20;;;21.40;55.80;;;;;;6210473;23;20168;-91
2023/05/21 08:56:58;;;;;;;27.03;6.60;;;21.50;55.80;;;;;;6210346;23;20184;-89
2023/05/21 08:59:25;;;;;;;28.47;7.23;;;21.50;55.80;;;;;;6210274;23;20196;-89
2023/05/21 09:01:53;;;;;;;21.10;6.63;;;21.60;55.80;;;;;;6210162;23;20618;-89
2023/05/21 09:04:21;;;;;;;32.47;6.97;;;21.50;55.70;;;;;;6209867;23;20193;-90
2023/05/21 09:06:49;;;;;;;25.53;6.40;;;21.60;55.80;;;;;;6209527;23;20266;-90
2023/05/21 09:09:25;;;;;;;32.87;7.63;;;21.60;55.80;;;;;;6210736;23;20195;-89
2023/05/21 09:11:53;;;;;;;23.30;6.57;;;21.60;55.80;;;;;;6210276;23;20170;-90
2023/05/21 09:14:23;;;;;;;25.77;6.47;;;21.70;55.80;;;;;;6209858;23;20570;-91
2023/05/21 09:16:50;;;;;;;33.07;7.37;;;21.70;55.80;;;;;;6209478;23;20175;-89
2023/05/21 09:19:17;;;;;;;21.97;6.30;;;21.70;55.70;;;;;;6209385;23;20166;-89
2023/05/21 09:21:45;;;;;;;25.00;6.43;;;21.70;55.70;;;;;;6209684;23;20172;-89
2023/05/21 09:24:14;;;;;;;31.00;6.47;;;21.80;56.00;;;;;;6210051;23;20167;-89
2023/05/21 09:26:42;;;;;;;26.77;6.37;;;21.70;55.60;;;;;;6210154;23;20234;-90
2023/05/21 09:29:09;;;;;;;25.50;6.17;;;21.80;55.80;;;;;;6208843;23;20247;-89
2023/05/21 09:31:36;;;;;;;24.77;6.80;;;21.80;55.70;;;;;;6210445;23;20237;-91
2023/05/21 09:34:04;;;;;;;23.83;6.43;;;21.80;55.70;;;;;;6210281;23;20206;-89
2023/05/21 09:36:34;;;;;;;26.07;6.03;;;21.80;55.70;;;;;;6209234;23;20180;-89
2023/05/21 09:39:03;;;;;;;25.87;6.33;;;21.90;55.80;;;;;;6209521;23;20239;-91
2023/05/21 09:41:34;;;;;;;30.13;6.23;;;21.90;55.80;;;;;;6209169;23;20277;-89
2023/05/21 09:44:02;;;;;;;27.00;6.63;;;22.00;56.00;;;;;;6209940;23;20164;-90
2023/05/21 09:46:38;;;;;;;31.63;5.97;;;21.90;55.70;;;;;;6209967;23;20215;-89
2023/05/21 09:49:05;;;;;;;27.80;5.93;;;22.00;55.90;;;;;;6211786;23;20195;-90
2023/05/21 09:51:32;;;;;;;27.03;6.13;;;22.00;55.80;;;;;;6212640;23;20246;-89
2023/05/21 09:53:59;;;;;;;26.03;6.53;;;22.00;55.80;;;;;;6215038;23;20652;-89
2023/05/21 09:56:29;;;;;;;24.50;6.13;;;22.00;55.90;;;;;;6215496;23;20167;-91
2023/05/21 09:58:59;;;;;;;24.53;6.40;;;22.10;55.90;;;;;;6217252;23;20246;-89
2023/05/21 10:01:27;;;;;;;25.40;6.60;;;22.10;55.90;;;;;;6212103;23;20921;-92
2023/05/21 10:03:56;;;;;;;25.43;6.50;;;22.20;55.90;;;;;;6209181;23;20168;-88
2023/05/21 10:06:26;;;;;;;20.17;5.70;;;22.10;55.90;;;;;;6209286;23;20176;-92
2023/05/21 10:08:55;;;;;;;26.53;6.53;;;22.10;55.90;;;;;;6210287;23;20202;-89
2023/05/21 10:11:25;;;;;;;21.40;5.67;;;22.20;55.90;;;;;;6209886;23;20670;-90
2023/05/21 10:13:57;;;;;;;21.80;5.90;;;22.20;56.00;;;;;;6209444;23;20175;-90
2023/05/21 10:16:24;;;;;;;21.30;6.17;;;22.30;56.00;;;;;;6209736;23;20255;-89
2023/05/21 10:18:53;;;;;;;36.00;7.13;;;22.30;56.00;;;;;;6209287;23;20216;-89
2023/05/21 10:21:22;;;;;;;24.87;6.53;;;22.30;56.00;;;;;;6210017;23;20174;-89
2023/05/21 10:23:50;;;;;;;31.47;7.23;;;22.30;56.00;;;;;;6209897;23;20164;-90
2023/05/21 10:26:20;;;;;;;31.73;6.83;;;22.30;56.00;;;;;;6210071;23;20174;-90
2023/05/21 10:28:47;;;;;;;29.47;7.17;;;22.30;56.00;;;;;;6209772;23;20211;-92
2023/05/21 10:31:16;;;;;;;22.83;7.07;;;22.40;56.00;;;;;;6209917;23;20236;-92
2023/05/21 10:33:44;;;;;;;26.47;6.90;;;22.40;56.00;;;;;;6219000;23;20666;-92
2023/05/21 10:36:12;;;;;;;30.63;6.67;;;22.50;56.10;;;;;;6232494;23;20180;-89
2023/05/21 10:38:40;;;;;;;29.90;6.87;;;22.50;56.10;;;;;;6224262;23;20465;-87
2023/05/21 10:41:08;;;;;;;22.90;6.67;;;22.50;56.10;;;;;;6214128;23;20196;-91
2023/05/21 10:43:45;;;;;;;25.03;6.63;;;22.50;56.10;;;;;;6211349;23;20262;-90
2023/05/21 10:46:39;;;;;;;26.97;6.67;;;22.50;56.10;;;;;;6212289;23;20166;-88
2023/05/21 10:49:30;;;;;;;17.87;5.87;;;22.60;56.20;;;;;;6212845;23;20210;-89
2023/05/21 10:52:07;;;;;;;22.40;6.23;;;22.60;56.20;;;;;;6212089;23;20625;-91
2023/05/21 10:55:00;;;;;;;25.27;6.37;;;22.60;56.10;;;;;;6211703;23;20692;-91
2023/05/21 10:57:53;;;;;;;27.20;6.80;;;22.60;56.10;;;;;;6211356;23;20263;-91
2023/05/21 11:00:20;;;;;;;27.70;6.57;;;22.70;56.20;;;;;;6212052;23;20199;-90
2023/05/21 11:02:50;;;;;;;23.73;6.00;;;22.70;56.10;;;;;;6211850;23;20222;-88
2023/05/21 11:05:34;;;;;;;30.23;7.07;;;22.70;56.10;;;;;;6211730;23;20214;-92
2023/05/21 11:08:01;;;;;;;32.30;7.00;;;22.70;56.10;;;;;;6211649;23;20206;-91
2023/05/21 11:10:43;;;;;;;27.53;6.83;;;22.70;56.60;;;;;;6211891;23;20192;-92
2023/05/21 11:13:12;;;;;;;26.30;6.60;;;22.70;56.10;;;;;;6210987;23;20575;-90
2023/05/21 11:16:07;;;;;;;26.23;6.60;;;22.70;56.10;;;;;;6211539;23;20649;-90
2023/05/21 11:19:00;;;;;;;25.13;6.20;;;22.80;56.30;;;;;;6196825;23;20255;-88
2023/05/21 11:21:30;;;;;;;24.83;6.57;;;22.80;56.20;;;;;;6176515;23;20502;-88
2023/05/21 11:24:01;;;;;;;25.73;6.83;;;22.80;56.10;;;;;;6211656;23;20238;-91
2023/05/21 11:26:30;;;;;;;22.17;6.43;;;22.80;56.20;;;;;;6211636;23;20244;-88
2023/05/21 11:29:11;;;;;;;27.03;6.97;;;22.80;56.10;;;;;;6210504;23;20538;-88
2023/05/21 11:31:38;;;;;;;21.77;6.40;;;22.90;56.30;;;;;;6211081;23;20214;-91
2023/05/21 11:34:12;;;;;;;26.30;6.47;;;22.90;56.20;;;;;;6211152;23;20192;-91
2023/05/21 11:36:41;;;;;;;21.30;5.83;;;22.90;56.30;;;;;;6210787;23;20176;-92
2023/05/21 11:39:11;;;;;;;32.03;6.97;;;22.90;56.20;;;;;;6211423;23;20231;-89
2023/05/21 11:41:52;;;;;;;23.60;6.17;;;23.00;56.30;;;;;;6210659;23;20172;-89
2023/05/21 11:44:21;;;;;;;28.97;6.63;;;23.00;56.30;;;;;;6210674;23;20243;-91
2023/05/21 11:46:48;;;;;;;37.57;7.13;;;23.00;56.30;;;;;;6210716;23;20219;-89
2023/05/21 11:49:17;;;;;;;27.70;6.50;;;23.00;56.30;;;;;;6211002;23;20263;-88
2023/05/21 11:51:45;;;;;;;28.60;6.47;;;23.00;56.30;;;;;;6210981;23;20271;-88
2023/05/21 11:54:12;;;;;;;31.87;6.70;;;23.00;56.30;;;;;;6210316;23;20169;-89
2023/05/21 11:56:40;;;;;;;25.13;6.10;;;23.00;56.30;;;;;;6210828;23;20569;-88
2023/05/21 11:59:15;;;;;;;23.10;6.27;;;23.00;56.30;;;;;;6210474;23;20745;-88
2023/05/21 12:01:43;;;;;;;22.63;6.20;;;23.10;56.40;;;;;;6210535;23;20255;-88
2023/05/21 12:04:10;;;;;;;30.33;6.57;;;23.10;56.40;;;;;;6210281;23;20165;-88
2023/05/21 12:06:42;;;;;;;23.13;6.87;;;23.10;56.40;;;;;;6211304;23;20664;-89
2023/05/21 12:09:09;;;;;;;32.43;7.27;;;23.10;56.40;;;;;;6210872;23;20255;-89
2023/05/21 12:11:39;;;;;;;19.47;6.13;;;23.20;56.40;;;;;;6211540;23;20196;-91
2023/05/21 12:14:08;;;;;;;27.53;6.73;;;23.20;56.50;;;;;;6209820;23;20194;-91
2023/05/21 12:16:35;;;;;;;28.93;6.93;;;23.20;56.40;;;;;;6210659;23;20175;-89
2023/05/21 12:19:03;;;;;;;26.40;6.57;;;23.20;56.40;;;;;;6210545;23;20270;-90
2023/05/21 12:21:30;;;;;;;28.20;6.20;;;23.20;56.40;;;;;;6210994;23;20239;-91
2023/05/21 12:23:59;;;;;;;28.23;6.97;;;23.20;56.40;;;;;;6211133;23;20165;-91
2023/05/21 12:26:26;;;;;;;43.80;7.53;;;23.30;56.50;;;;;;6210839;23;20188;-90
2023/05/21 12:28:54;;;;;;;22.93;6.27;;;23.30;56.50;;;;;;6211103;23;20199;-91
2023/05/21 12:31:22;;;;;;;25.70;6.67;;;23.30;56.40;;;;;;6210775;23;20175;-91
2023/05/21 12:33:49;;;;;;;26.10;6.90;;;23.30;56.40;;;;;;6210948;23;20167;-91
2023/05/21 12:36:23;;;;;;;34.53;7.40;;;23.30;56.40;;;;;;6210525;23;20246;-92
2023/05/21 12:38:51;;;;;;;26.63;6.60;;;23.30;56.50;;;;;;6210212;23;20202;-91
2023/05/21 12:41:21;;;;;;;34.53;7.37;;;23.30;56.40;;;;;;6210429;23;20164;-90
2023/05/21 12:43:48;;;;;;;32.60;6.80;;;23.30;56.40;;;;;;6210122;23;20164;-91